ADQ weather

Kodiak Airport
Kodiak, Alaska, United States

Public forecast

Using degrees Fahrenheit for public forecast. Weather courtesy of forecast.io.

Current aviation weather report (METAR) for Kodiak Airport

Retrieved 2019/12/15 06:53 UTC (49 minutes ago):

PADQ 150653Z AUTO 08019KT 4SM RA BR BKN008 BKN013 OVC020 06/04 A2937

Aviation forecast (TAF) for Kodiak Airport

Retrieved 2019/12/15 06:27 UTC (1 hour ago):

TAF PADQ 150524Z 1506/1606 09020G28KT 3SM -RA BR SCT006 OVC015 FM151500 09015KT 6SM -SHRA BR SCT015 OVC025 FM160000 09009KT P6SM -SHRA SCT025 OVC035